Time;durP1;ratioP1;P1;durP2;ratioP2;P2;SDS_P1;SDS_P2;PMS_P1;PMS_P2;Temp;Humidity;BMP_temperature;BMP_pressure;BME280_temperature;BME280_humidity;BME280_pressure;Samples;Min_cycle;Max_cycle;Signal;HPM_P1;HPM_P2
2023/08/29 00:00:41;;;;;;;4.87;3.40;;;;;;;14.42;100.00;96589.53;6333108;28;20282;-48
2023/08/29 00:03:44;;;;;;;3.43;3.13;;;;;;;14.40;100.00;96596.28;6309930;28;20305;-49
2023/08/29 00:06:47;;;;;;;5.30;2.97;;;;;;;14.37;100.00;96580.78;6331617;28;20213;-52
2023/08/29 00:09:49;;;;;;;2.93;2.73;;;;;;;14.35;100.00;96567.69;6326734;28;20235;-52
2023/08/29 00:12:52;;;;;;;3.27;2.93;;;;;;;14.27;100.00;96546.13;6307471;28;20235;-52
2023/08/29 00:15:57;;;;;;;3.67;3.30;;;;;;;14.23;100.00;96537.09;6326460;28;20304;-52
2023/08/29 00:18:59;;;;;;;4.07;3.67;;;;;;;14.37;100.00;96562.03;6327550;28;20229;-50
2023/08/29 00:22:02;;;;;;;5.00;4.50;;;;;;;14.36;100.00;96568.47;6329980;28;20232;-48
2023/08/29 00:25:04;;;;;;;4.80;4.33;;;;;;;14.29;100.00;96555.47;6327449;28;20236;-50
2023/08/29 00:28:07;;;;;;;6.73;4.73;;;;;;;14.31;100.00;96555.19;6325877;28;20224;-51
2023/08/29 00:31:10;;;;;;;5.00;4.50;;;;;;;14.25;100.00;96559.03;6306163;28;20236;-51
2023/08/29 00:34:13;;;;;;;4.80;4.40;;;;;;;14.22;100.00;96559.59;6325849;28;20232;-52
2023/08/29 00:37:15;;;;;;;4.27;3.87;;;;;;;14.24;100.00;96533.34;6332276;28;20229;-51
2023/08/29 00:40:17;;;;;;;5.17;4.50;;;;;;;14.26;100.00;96531.94;6307936;28;20230;-50
2023/08/29 00:43:19;;;;;;;5.80;5.30;;;;;;;14.26;100.00;96523.13;6325840;28;20382;-49
2023/08/29 00:46:23;;;;;;;5.63;5.10;;;;;;;14.15;100.00;96498.38;6326496;28;20278;-51
2023/08/29 00:49:26;;;;;;;7.60;5.70;;;;;;;14.17;100.00;96491.63;6326860;28;20328;-49
2023/08/29 00:52:30;;;;;;;5.87;4.97;;;;;;;14.12;100.00;96523.84;6327211;28;20232;-52
2023/08/29 00:55:35;;;;;;;6.73;5.67;;;;;;;14.13;100.00;96538.84;6324653;28;20233;-51
2023/08/29 00:58:37;;;;;;;7.13;5.63;;;;;;;14.12;100.00;96529.22;6326574;28;20369;-48
2023/08/29 01:01:40;;;;;;;8.17;6.20;;;;;;;14.08;100.00;96509.47;6327024;28;20747;-49
2023/08/29 01:04:42;;;;;;;6.63;5.37;;;;;;;14.09;100.00;96508.38;6326899;28;20228;-51
2023/08/29 01:07:44;;;;;;;6.57;5.97;;;;;;;14.14;100.00;96524.38;6327856;28;20601;-48
2023/08/29 01:11:37;;;;;;;7.00;6.27;;;;;;;14.12;100.00;96529.22;6327517;28;20225;-50
2023/08/29 01:14:58;;;;;;;6.17;5.60;;;;;;;14.11;100.00;96526.84;6307309;28;20229;-51
2023/08/29 01:18:03;;;;;;;6.30;5.70;;;;;;;14.13;100.00;96554.91;6308507;28;20275;-50
2023/08/29 01:21:18;;;;;;;5.17;4.63;;;;;;;14.16;100.00;96570.41;6306788;28;20533;-48
2023/08/29 01:24:49;;;;;;;5.33;4.87;;;;;;;14.20;100.00;96579.44;6331392;28;20411;-50
2023/08/29 01:27:53;;;;;;;7.03;5.50;;;;;;;14.22;100.00;96578.34;6323275;28;20236;-48
2023/08/29 01:30:56;;;;;;;6.83;5.73;;;;;;;14.22;100.00;96581.03;6325899;28;20236;-48
2023/08/29 01:33:59;;;;;;;7.00;6.30;;;;;;;14.26;100.00;96592.75;6326895;28;20240;-52
2023/08/29 01:37:01;;;;;;;6.97;5.80;;;;;;;14.26;100.00;96588.19;6322661;28;20236;-51
2023/08/29 01:40:04;;;;;;;6.27;5.67;;;;;;;14.27;100.00;96579.06;6326641;28;20805;-48
2023/08/29 01:43:07;;;;;;;6.27;5.67;;;;;;;14.24;100.00;96547.53;6306808;28;20598;-48
2023/08/29 01:46:09;;;;;;;6.53;5.83;;;;;;;14.19;100.00;96516.25;6331673;28;20229;-48
2023/08/29 01:49:11;;;;;;;7.33;6.20;;;;;;;14.15;100.00;96523.28;6331151;28;20228;-51
2023/08/29 01:52:14;;;;;;;7.20;6.23;;;;;;;14.12;100.00;96534.56;6333098;28;20235;-51
2023/08/29 01:55:16;;;;;;;7.40;6.73;;;;;;;14.12;100.00;96539.94;6327077;28;20278;-51
2023/08/29 01:58:20;;;;;;;6.87;6.20;;;;;;;14.13;100.00;96532.69;6329434;28;20225;-49
2023/08/29 02:01:23;;;;;;;6.70;6.10;;;;;;;14.13;100.00;96538.84;6330182;28;20370;-51
2023/08/29 02:04:28;;;;;;;5.83;5.23;;;;;;;14.13;100.00;96521.97;6327154;28;20239;-50
2023/08/29 02:07:30;;;;;;;6.27;5.63;;;;;;;14.15;100.00;96495.72;6330089;28;20657;-51
2023/08/29 02:10:35;;;;;;;5.80;5.20;;;;;;;14.16;100.00;96486.56;6330175;28;20243;-50
2023/08/29 02:13:37;;;;;;;6.00;5.40;;;;;;;13.91;100.00;96445.75;6326925;28;20313;-51
2023/08/29 02:16:39;;;;;;;6.53;5.77;;;;;;;14.10;100.00;96480.50;6328241;28;20237;-51
2023/08/29 02:19:48;;;;;;;6.37;5.77;;;;;;;14.11;100.00;96492.81;6311055;28;20737;-49
2023/08/29 02:22:50;;;;;;;7.20;6.50;;;;;;;14.07;100.00;96497.16;6328502;28;20598;-48
2023/08/29 02:26:05;;;;;;;5.93;5.33;;;;;;;14.03;100.00;96514.09;6329242;28;20240;-48
2023/08/29 02:29:08;;;;;;;6.50;5.90;;;;;;;14.10;100.00;96528.72;6328739;28;20241;-52
2023/08/29 02:32:10;;;;;;;5.93;5.33;;;;;;;14.06;100.00;96533.06;6311684;28;20269;-48
2023/08/29 02:35:12;;;;;;;5.20;4.70;;;;;;;14.07;100.00;96560.63;6328889;28;20714;-51
2023/08/29 02:38:15;;;;;;;6.20;5.27;;;;;;;14.11;100.00;96538.34;6337168;27;20591;-49
2023/08/29 02:41:17;;;;;;;5.23;4.73;;;;;;;14.10;100.00;96539.44;6313110;28;20685;-49
2023/08/29 02:44:19;;;;;;;6.70;5.30;;;;;;;14.12;100.00;96541.81;6328584;28;20225;-50
2023/08/29 02:47:21;;;;;;;5.37;4.87;;;;;;;14.13;100.00;96559.47;6328423;28;20260;-50
2023/08/29 02:50:23;;;;;;;4.43;4.03;;;;;;;14.15;100.00;96552.75;6329347;28;20225;-49
2023/08/29 02:53:26;;;;;;;5.63;4.40;;;;;;;14.16;100.00;96540.16;6327873;28;20221;-48
2023/08/29 02:56:28;;;;;;;6.23;4.13;;;;;;;14.19;100.00;96551.06;6308106;28;20316;-51
2023/08/29 02:59:30;;;;;;;4.30;3.90;;;;;;;14.20;100.00;96547.31;6328675;28;20224;-50
2023/08/29 03:02:32;;;;;;;4.50;4.10;;;;;;;14.22;100.00;96544.31;6328510;28;20389;-49
2023/08/29 03:05:35;;;;;;;7.23;4.73;;;;;;;14.25;100.00;96542.97;6329717;28;20240;-51
2023/08/29 03:08:38;;;;;;;4.97;4.30;;;;;;;14.22;100.00;96557.72;6327571;28;20607;-49
2023/08/29 03:11:40;;;;;;;4.90;4.40;;;;;;;14.20;100.00;96560.69;6328143;28;20636;-51
2023/08/29 03:14:44;;;;;;;4.40;4.00;;;;;;;14.23;100.00;96545.91;6325904;28;20913;-48
2023/08/29 03:17:46;;;;;;;6.10;4.00;;;;;;;14.07;100.00;96510.56;6309982;28;20644;-49
2023/08/29 03:20:48;;;;;;;4.43;3.80;;;;;;;14.28;100.00;96537.78;6327578;28;20236;-48
2023/08/29 03:23:50;;;;;;;6.47;4.63;;;;;;;14.24;100.00;96526.09;6309051;28;20715;-48
2023/08/29 03:26:53;;;;;;;4.07;3.77;;;;;;;14.23;100.00;96521.81;6310747;28;20268;-52
2023/08/29 03:29:55;;;;;;;6.70;4.30;;;;;;;14.20;100.00;96523.19;6328465;28;20239;-50
2023/08/29 03:32:57;;;;;;;4.83;4.23;;;;;;;14.21;100.00;96532.03;6327047;28;20233;-49
2023/08/29 03:36:00;;;;;;;8.27;4.90;;;;;;;14.20;100.00;96519.72;6327898;28;20265;-50
2023/08/29 03:39:03;;;;;;;5.60;4.37;;;;;;;14.18;100.00;96511.97;6327612;28;20224;-52
2023/08/29 03:42:05;;;;;;;4.63;4.17;;;;;;;14.15;100.00;96499.19;6327998;28;20239;-51
2023/08/29 03:45:08;;;;;;;5.17;4.47;;;;;;;14.13;100.00;96527.31;6327881;28;20237;-48
2023/08/29 03:48:10;;;;;;;5.57;4.20;;;;;;;14.09;100.00;96527.13;6323928;28;20232;-49
2023/08/29 03:51:24;;;;;;;5.27;4.77;;;;;;;14.07;100.00;96517.78;6323856;28;20225;-50
2023/08/29 03:54:27;;;;;;;6.30;4.33;;;;;;;14.05;100.00;96512.75;6324241;28;20220;-48
2023/08/29 03:57:29;;;;;;;4.03;3.50;;;;;;;14.06;100.00;96522.34;6327696;28;20316;-51
2023/08/29 04:00:31;;;;;;;8.13;4.57;;;;;;;14.06;100.00;96535.75;6327534;28;20305;-51
2023/08/29 04:03:33;;;;;;;5.33;4.53;;;;;;;14.03;100.00;96533.63;6324631;28;20234;-50
2023/08/29 04:06:36;;;;;;;5.27;4.20;;;;;;;14.02;100.00;96544.66;6325271;28;20928;-50
2023/08/29 04:09:39;;;;;;;4.53;4.13;;;;;;;13.97;100.00;96536.69;6328710;28;20818;-48
2023/08/29 04:12:42;;;;;;;5.30;4.00;;;;;;;13.98;100.00;96530.25;6311693;28;20228;-50
2023/08/29 04:15:44;;;;;;;5.30;4.73;;;;;;;13.91;100.00;96535.97;6307343;28;20254;-48
2023/08/29 04:18:46;;;;;;;4.30;3.90;;;;;;;14.03;100.00;96543.56;6309582;28;20230;-49
2023/08/29 04:21:49;;;;;;;5.17;4.00;;;;;;;14.07;100.00;96533.84;6327388;28;20229;-51
2023/08/29 04:24:51;;;;;;;5.00;4.20;;;;;;;14.04;100.00;96526.41;6327114;28;20285;-49
2023/08/29 04:27:53;;;;;;;5.97;4.30;;;;;;;14.05;100.00;96525.34;6327029;28;20231;-52
2023/08/29 04:31:06;;;;;;;4.30;3.40;;;;;;;14.04;100.00;96529.06;6309547;28;20225;-49
2023/08/29 04:34:08;;;;;;;5.30;3.80;;;;;;;14.05;100.00;96525.34;6323623;28;20277;-50
2023/08/29 04:37:11;;;;;;;4.63;3.90;;;;;;;14.06;100.00;96505.50;6324740;28;20248;-51
2023/08/29 04:40:15;;;;;;;6.63;3.50;;;;;;;14.04;100.00;96488.91;6326435;28;20374;-52
2023/08/29 04:43:19;;;;;;;4.37;3.90;;;;;;;14.07;100.00;96486.44;6309454;28;20236;-48
2023/08/29 04:46:21;;;;;;;4.30;3.70;;;;;;;14.05;100.00;96477.94;6324948;28;20225;-50
2023/08/29 04:49:24;;;;;;;5.27;3.70;;;;;;;14.09;100.00;96492.31;6324077;28;20229;-47
2023/08/29 04:52:27;;;;;;;4.33;3.43;;;;;;;14.03;100.00;96469.38;6324651;28;20225;-50
2023/08/29 04:55:30;;;;;;;4.50;3.63;;;;;;;14.10;100.00;96498.47;6326679;28;20228;-50
2023/08/29 04:58:32;;;;;;;4.00;3.60;;;;;;;14.10;100.00;96493.91;6326965;28;20233;-50
2023/08/29 05:01:34;;;;;;;4.37;3.80;;;;;;;14.23;100.00;96488.88;6309415;28;20224;-49
2023/08/29 05:04:37;;;;;;;5.13;3.20;;;;;;;14.15;100.00;96501.06;6313495;28;20357;-49
2023/08/29 05:07:40;;;;;;;3.43;2.97;;;;;;;14.13;100.00;96493.31;6308856;28;20253;-50
2023/08/29 05:10:43;;;;;;;5.37;3.17;;;;;;;14.17;100.00;96491.63;6309622;28;20703;-51
2023/08/29 05:13:46;;;;;;;2.70;2.50;;;;;;;14.18;100.00;96500.47;6313111;28;20303;-50
2023/08/29 05:16:48;;;;;;;3.70;2.93;;;;;;;14.18;100.00;96503.94;6324336;28;20721;-49
2023/08/29 05:19:51;;;;;;;3.57;2.80;;;;;;;14.20;100.00;96512.47;6312770;28;20233;-50
2023/08/29 05:22:54;;;;;;;3.27;3.07;;;;;;;14.27;100.00;96511.31;6310825;28;20225;-49
2023/08/29 05:25:56;;;;;;;3.17;2.37;;;;;;;14.20;100.00;96523.19;6314468;28;20634;-48
2023/08/29 05:28:58;;;;;;;2.83;2.40;;;;;;;14.09;100.00;96526.34;6330882;28;21066;-50
2023/08/29 05:32:01;;;;;;;2.97;2.70;;;;;;;14.29;100.00;96526.00;6330516;28;20240;-50
2023/08/29 05:35:03;;;;;;;3.87;2.40;;;;;;;14.29;100.00;96535.94;6330856;28;20686;-47
2023/08/29 05:38:05;;;;;;;2.73;2.53;;;;;;;14.31;100.00;96544.47;6331133;28;20262;-49
2023/08/29 05:41:08;;;;;;;3.30;3.00;;;;;;;14.31;100.00;96560.53;6331176;28;20231;-51
2023/08/29 05:44:10;;;;;;;2.97;2.70;;;;;;;14.32;100.00;96562.91;6331790;28;20229;-50
2023/08/29 05:47:12;;;;;;;3.53;2.73;;;;;;;14.33;100.00;96551.09;6331201;28;20236;-49
2023/08/29 05:50:15;;;;;;;2.93;2.60;;;;;;;14.34;100.00;96551.91;6329755;28;20236;-48
2023/08/29 05:53:18;;;;;;;3.97;3.57;;;;;;;14.36;100.00;96557.78;6328311;28;20232;-48
2023/08/29 05:56:20;;;;;;;3.80;3.20;;;;;;;14.38;100.00;96552.91;6328740;28;20259;-49
2023/08/29 05:59:23;;;;;;;4.47;3.50;;;;;;;14.34;100.00;96547.34;6330505;28;20718;-51
2023/08/29 06:02:26;;;;;;;5.03;3.77;;;;;;;14.35;100.00;96565.00;6330505;28;20578;-49
2023/08/29 06:05:28;;;;;;;6.27;4.10;;;;;;;14.48;100.00;96565.38;6329503;28;20307;-51
2023/08/29 06:08:33;;;;;;;4.53;3.40;;;;;;;14.33;100.00;96571.75;6309421;28;20311;-50
2023/08/29 06:11:35;;;;;;;5.40;3.40;;;;;;;14.34;100.00;96578.72;6330756;28;20229;-50
2023/08/29 06:14:37;;;;;;;3.53;3.13;;;;;;;14.23;100.00;96579.94;6327246;28;20944;-50
2023/08/29 06:17:40;;;;;;;5.30;3.10;;;;;;;14.20;100.00;96590.16;6328086;28;20228;-48
2023/08/29 06:20:42;;;;;;;3.83;3.07;;;;;;;14.21;100.00;96593.63;6330197;28;20231;-49
2023/08/29 06:23:44;;;;;;;3.30;3.00;;;;;;;14.24;100.00;96584.22;6328933;28;20580;-49
2023/08/29 06:26:46;;;;;;;3.00;2.70;;;;;;;14.22;100.00;96581.03;6329310;28;20966;-49
2023/08/29 06:29:49;;;;;;;3.07;2.77;;;;;;;14.22;100.00;96581.81;6307131;28;20244;-49
2023/08/29 06:32:51;;;;;;;5.37;3.00;;;;;;;14.22;100.00;96587.19;6329813;28;20532;-48
2023/08/29 06:35:53;;;;;;;4.73;2.80;;;;;;;14.24;100.00;96578.88;6329025;28;20296;-51
2023/08/29 06:38:55;;;;;;;4.80;2.53;;;;;;;14.23;100.00;96585.28;6330268;28;20232;-51
2023/08/29 06:41:58;;;;;;;2.93;2.47;;;;;;;14.29;100.00;96584.16;6335106;28;20704;-50
2023/08/29 06:45:00;;;;;;;2.30;2.10;;;;;;;14.30;100.00;96591.88;6328458;28;20232;-50
2023/08/29 06:48:03;;;;;;;4.30;2.57;;;;;;;14.30;100.00;96593.78;6327969;28;20247;-50
2023/08/29 06:51:05;;;;;;;3.80;2.63;;;;;;;14.33;100.00;96593.97;6329304;28;20217;-52
2023/08/29 06:54:07;;;;;;;3.47;2.40;;;;;;;14.40;100.00;96597.09;6329242;28;20231;-49
2023/08/29 06:57:09;;;;;;;3.70;2.30;;;;;;;14.31;100.00;96606.06;6331055;28;20202;-52
2023/08/29 07:00:12;;;;;;;2.87;2.60;;;;;;;14.31;100.00;96595.34;6329890;28;20276;-48
2023/08/29 07:03:15;;;;;;;6.33;3.07;;;;;;;14.36;100.00;96603.31;6329322;28;20264;-52
2023/08/29 07:06:17;;;;;;;2.90;2.60;;;;;;;14.28;100.00;96603.97;6328787;28;20209;-49
2023/08/29 07:09:19;;;;;;;3.40;2.90;;;;;;;14.24;100.00;96605.66;6328792;28;20712;-49
2023/08/29 07:12:22;;;;;;;2.90;2.60;;;;;;;14.30;100.00;96601.81;6334449;28;20232;-50
2023/08/29 07:15:24;;;;;;;3.50;2.60;;;;;;;14.35;100.00;96620.47;6328624;28;20252;-50
2023/08/29 07:18:26;;;;;;;3.47;2.20;;;;;;;14.33;100.00;96609.25;6306744;28;20585;-50
2023/08/29 07:21:29;;;;;;;4.33;2.27;;;;;;;14.39;100.00;96603.53;6326886;28;20266;-51
2023/08/29 07:24:31;;;;;;;3.13;2.03;;;;;;;14.43;100.00;96598.38;6328270;28;20378;-51
2023/08/29 07:27:33;;;;;;;4.17;2.17;;;;;;;14.44;100.00;96608.81;6334854;28;20228;-50
2023/08/29 07:30:47;;;;;;;3.07;1.90;;;;;;;14.46;100.00;96600.47;6326689;28;20247;-51
2023/08/29 07:33:50;;;;;;;2.90;1.90;;;;;;;14.45;100.00;96614.97;6310278;28;20233;-51
2023/08/29 07:36:52;;;;;;;2.73;1.63;;;;;;;14.43;100.00;96614.44;6327989;28;20734;-52
2023/08/29 07:39:54;;;;;;;2.00;1.60;;;;;;;14.33;100.00;96634.16;6326787;28;20232;-50
2023/08/29 07:42:56;;;;;;;3.23;1.50;;;;;;;14.32;100.00;96642.50;6327635;28;20233;-52
2023/08/29 07:45:59;;;;;;;2.17;1.70;;;;;;;14.28;100.00;96633.44;6326557;28;20233;-50
2023/08/29 07:49:01;;;;;;;2.17;1.30;;;;;;;14.28;100.00;96628.09;6324730;28;20298;-49
2023/08/29 07:52:04;;;;;;;2.67;1.20;;;;;;;14.36;100.00;96635.47;6327922;28;20220;-50
2023/08/29 07:55:07;;;;;;;2.17;1.57;;;;;;;14.30;100.00;96636.63;6325291;28;20237;-51
2023/08/29 07:58:09;;;;;;;2.83;1.27;;;;;;;14.23;100.00;96649.59;6304073;28;20229;-50
2023/08/29 08:01:11;;;;;;;6.63;1.00;;;;;;;14.16;100.00;96645.41;6328076;28;20226;-52
2023/08/29 08:04:14;;;;;;;2.30;0.90;;;;;;;14.30;100.00;96645.47;6327562;28;20319;-50
2023/08/29 08:07:16;;;;;;;0.80;0.80;;;;;;;14.25;100.00;96650.09;6327888;28;20711;-52
2023/08/29 08:10:19;;;;;;;1.60;0.70;;;;;;;14.13;100.00;96655.88;6327179;28;20247;-50
2023/08/29 08:13:21;;;;;;;1.17;0.83;;;;;;;14.13;100.00;96671.94;6327329;28;20866;-53
2023/08/29 08:16:24;;;;;;;0.90;0.70;;;;;;;14.08;100.00;96674.69;6325352;28;20250;-51
2023/08/29 08:19:26;;;;;;;8.23;1.07;;;;;;;14.20;100.00;96681.25;6328630;27;20231;-51
2023/08/29 08:22:28;;;;;;;0.70;0.70;;;;;;;14.19;100.00;96681.53;6326755;28;20232;-51
2023/08/29 08:25:30;;;;;;;1.10;0.90;;;;;;;14.24;100.00;96692.19;6326110;28;20709;-53
2023/08/29 08:28:32;;;;;;;1.33;0.60;;;;;;;14.17;100.00;96689.84;6327267;28;20609;-51
2023/08/29 08:31:34;;;;;;;3.23;0.80;;;;;;;14.29;100.00;96699.34;6322358;28;20270;-50
2023/08/29 08:34:37;;;;;;;1.10;0.67;;;;;;;14.26;100.00;96694.56;6326495;28;20232;-49
2023/08/29 08:37:39;;;;;;;2.63;0.70;;;;;;;14.27;100.00;96688.91;6323423;28;20228;-51
2023/08/29 08:40:41;;;;;;;1.90;0.90;;;;;;;14.38;100.00;96694.91;6326783;28;20228;-52
2023/08/29 08:43:44;;;;;;;1.53;0.90;;;;;;;14.32;100.00;96706.78;6324517;28;20656;-50
2023/08/29 08:46:48;;;;;;;2.60;0.97;;;;;;;14.19;100.00;96711.00;6326587;28;20225;-51
2023/08/29 08:49:50;;;;;;;1.00;0.80;;;;;;;14.23;100.00;96703.16;6325710;28;20224;-51
2023/08/29 08:52:55;;;;;;;1.20;0.83;;;;;;;14.29;100.00;96702.81;6328054;28;20250;-50
2023/08/29 08:55:57;;;;;;;0.93;0.67;;;;;;;14.43;100.00;96701.00;6332067;28;20312;-50
2023/08/29 08:59:00;;;;;;;0.80;0.60;;;;;;;14.53;100.00;96704.63;6328696;28;20228;-49
2023/08/29 09:02:02;;;;;;;1.00;0.67;;;;;;;14.50;100.00;96691.84;6331402;28;20224;-50
2023/08/29 09:05:04;;;;;;;1.40;0.80;;;;;;;14.53;100.00;96693.91;6327842;28;20242;-51
2023/08/29 09:08:09;;;;;;;0.90;0.70;;;;;;;14.39;100.00;96702.69;6331965;28;20313;-50
2023/08/29 09:11:12;;;;;;;0.67;0.50;;;;;;;14.49;100.00;96717.03;6331818;28;20221;-51
2023/08/29 09:14:15;;;;;;;0.67;0.50;;;;;;;14.61;99.91;96712.81;6325265;28;20228;-51
2023/08/29 09:17:17;;;;;;;0.40;0.40;;;;;;;14.52;100.00;96719.13;6331879;28;20361;-50
2023/08/29 09:20:21;;;;;;;0.47;0.40;;;;;;;14.55;100.00;96705.94;6312629;28;20228;-50
2023/08/29 09:23:25;;;;;;;0.90;0.50;;;;;;;14.59;100.00;96709.66;6331335;28;20236;-48
2023/08/29 09:26:32;;;;;;;0.23;0.23;;;;;;;14.66;100.00;96704.69;6331739;28;20618;-51
2023/08/29 09:29:35;;;;;;;0.10;0.10;;;;;;;14.73;100.00;96695.47;6326679;28;20229;-52
2023/08/29 09:32:44;;;;;;;0.10;0.10;;;;;;;14.87;98.39;96701.69;6331841;28;20233;-50
2023/08/29 09:35:47;;;;;;;0.27;0.20;;;;;;;14.93;96.13;96706.69;6330519;28;20240;-49
2023/08/29 09:38:50;;;;;;;0.30;0.20;;;;;;;15.06;95.78;96705.13;6327580;28;20221;-52
2023/08/29 09:42:21;;;;;;;0.53;0.13;;;;;;;15.03;96.31;96700.38;6330378;28;20727;-51
2023/08/29 09:45:23;;;;;;;0.30;0.10;;;;;;;15.03;94.59;96716.47;6307236;28;20310;-51
2023/08/29 09:48:27;;;;;;;0.30;0.10;;;;;;;15.01;95.40;96707.91;6332135;28;20224;-53
2023/08/29 09:51:32;;;;;;;0.10;0.10;;;;;;;15.08;96.46;96724.44;6331582;28;20225;-48
2023/08/29 09:54:39;;;;;;;0.10;0.10;;;;;;;15.11;95.21;96721.13;6326980;28;20604;-49
2023/08/29 09:57:42;;;;;;;0.50;0.10;;;;;;;15.13;93.49;96726.22;6327890;28;20229;-50
2023/08/29 10:00:45;;;;;;;0.30;0.10;;;;;;;15.12;91.98;96725.44;6329624;28;20251;-51
2023/08/29 10:03:48;;;;;;;0.20;0.20;;;;;;;15.10;90.80;96748.28;6330539;28;20612;-50
2023/08/29 10:06:53;;;;;;;0.20;0.20;;;;;;;14.99;94.53;96752.22;6329309;28;20229;-52
2023/08/29 10:09:56;;;;;;;0.20;0.20;;;;;;;14.98;92.12;96745.25;6330626;28;20971;-51
2023/08/29 10:12:59;;;;;;;0.20;0.20;;;;;;;15.04;91.83;96758.28;6329984;28;20574;-51
2023/08/29 10:16:03;;;;;;;0.73;0.20;;;;;;;14.86;93.54;96741.13;6326955;28;20229;-49
2023/08/29 10:19:06;;;;;;;1.80;0.30;;;;;;;14.96;94.67;96743.66;6320666;28;20569;-51
2023/08/29 10:22:10;;;;;;;0.27;0.23;;;;;;;15.03;91.99;96742.50;6329509;28;20233;-50
2023/08/29 10:25:18;;;;;;;1.03;0.20;;;;;;;15.15;92.40;96735.56;6330074;28;20237;-49
2023/08/29 10:28:22;;;;;;;0.30;0.30;;;;;;;15.16;92.78;96729.09;6330501;28;20328;-53
2023/08/29 10:31:25;;;;;;;1.70;0.50;;;;;;;15.22;91.56;96737.84;6329567;28;20229;-50
2023/08/29 10:34:28;;;;;;;0.37;0.20;;;;;;;15.25;91.88;96739.97;6329477;28;20616;-51
2023/08/29 10:37:31;;;;;;;0.90;0.30;;;;;;;15.28;91.62;96733.22;6329501;28;20236;-51
2023/08/29 10:40:36;;;;;;;0.30;0.30;;;;;;;15.36;90.79;96732.53;6329734;28;20262;-49
2023/08/29 10:43:38;;;;;;;0.40;0.40;;;;;;;15.39;91.32;96729.25;6326749;28;20339;-53
2023/08/29 10:46:51;;;;;;;1.23;0.40;;;;;;;15.49;87.56;96723.72;6327757;28;20625;-53
2023/08/29 10:50:05;;;;;;;1.57;0.50;;;;;;;15.30;87.52;96690.78;6329317;28;20229;-53
2023/08/29 10:53:18;;;;;;;0.50;0.50;;;;;;;15.45;88.52;96728.88;6305348;28;20643;-52
2023/08/29 10:56:38;;;;;;;0.60;0.60;;;;;;;15.45;88.23;96742.28;6327496;28;20225;-52
2023/08/29 10:59:40;;;;;;;0.73;0.63;;;;;;;15.39;88.35;96726.56;6327238;28;20317;-50
2023/08/29 11:02:43;;;;;;;0.70;0.70;;;;;;;15.37;89.33;96721.50;6329364;28;20728;-52
2023/08/29 11:05:56;;;;;;;0.60;0.60;;;;;;;15.45;88.08;96728.88;6329442;28;20224;-49
2023/08/29 11:09:21;;;;;;;0.50;0.50;;;;;;;15.38;88.61;96725.78;6329588;28;20235;-51
2023/08/29 11:12:24;;;;;;;0.40;0.40;;;;;;;15.41;89.14;96727.06;6325000;28;20241;-51
2023/08/29 11:15:51;;;;;;;0.47;0.47;;;;;;;15.43;88.92;96728.38;6326270;28;20232;-51
2023/08/29 11:19:06;;;;;;;0.50;0.50;;;;;;;15.38;89.97;96741.88;6322057;28;20225;-52
2023/08/29 11:22:09;;;;;;;0.60;0.60;;;;;;;15.30;87.28;96741.75;6322355;28;20248;-51
2023/08/29 11:25:11;;;;;;;0.50;0.50;;;;;;;15.21;89.05;96745.13;6311259;28;20237;-52
2023/08/29 11:28:14;;;;;;;0.67;0.50;;;;;;;15.16;87.92;96741.72;6328618;28;20224;-50
2023/08/29 11:31:20;;;;;;;0.63;0.63;;;;;;;15.12;88.94;96736.16;6327258;28;20236;-49
2023/08/29 11:34:22;;;;;;;0.70;0.60;;;;;;;15.26;86.05;96724.66;6327434;28;20225;-51
2023/08/29 11:37:29;;;;;;;0.97;0.50;;;;;;;15.25;86.20;96731.13;6327852;28;20608;-52
2023/08/29 11:40:36;;;;;;;1.43;0.30;;;;;;;15.35;86.00;96725.56;6326781;28;20310;-51
2023/08/29 11:44:00;;;;;;;0.60;0.60;;;;;;;15.42;85.08;96715.25;6299246;28;20259;-49
2023/08/29 11:47:23;;;;;;;0.40;0.40;;;;;;;15.55;83.86;96725.19;6325993;28;20780;-50
2023/08/29 11:50:26;;;;;;;0.40;0.40;;;;;;;15.65;84.01;96716.97;6328212;28;20217;-53
2023/08/29 11:53:29;;;;;;;0.50;0.50;;;;;;;15.66;83.43;96731.19;6328469;28;20236;-51
2023/08/29 11:56:31;;;;;;;0.40;0.40;;;;;;;15.74;85.02;96730.50;6326725;28;20354;-48
2023/08/29 11:59:35;;;;;;;1.60;0.40;;;;;;;15.85;83.19;96728.44;6326696;28;20229;-48
2023/08/29 12:02:37;;;;;;;0.30;0.30;;;;;;;15.84;83.36;96738.38;6328165;28;20233;-52
2023/08/29 12:05:40;;;;;;;0.83;0.30;;;;;;;15.79;81.68;96733.09;6323783;28;20241;-49
2023/08/29 12:08:44;;;;;;;0.70;0.30;;;;;;;15.83;80.13;96746.75;6324203;28;20232;-49
2023/08/29 12:11:46;;;;;;;0.50;0.50;;;;;;;15.59;83.05;96753.03;6326202;28;20881;-48
2023/08/29 12:14:52;;;;;;;0.60;0.60;;;;;;;15.42;82.75;96740.22;6323868;28;20243;-50
2023/08/29 12:17:54;;;;;;;0.57;0.43;;;;;;;15.41;82.40;96759.28;6327595;28;20600;-49
2023/08/29 12:21:13;;;;;;;0.80;0.50;;;;;;;15.39;84.99;96748.03;6323717;28;20597;-49
2023/08/29 12:24:15;;;;;;;0.57;0.57;;;;;;;15.45;86.39;96741.50;6328591;28;20305;-49
2023/08/29 12:27:18;;;;;;;0.83;0.77;;;;;;;15.63;81.29;96737.97;6330929;28;20217;-52
2023/08/29 12:30:20;;;;;;;0.50;0.50;;;;;;;15.57;81.86;96735.66;6324437;28;20758;-52
2023/08/29 12:33:23;;;;;;;0.90;0.50;;;;;;;15.61;83.92;96745.47;6326540;28;20232;-51
2023/08/29 12:36:25;;;;;;;1.00;0.53;;;;;;;15.65;82.61;96748.41;6326406;28;20224;-52
2023/08/29 12:39:27;;;;;;;0.40;0.37;;;;;;;15.71;82.97;96747.22;6322702;28;20229;-53
2023/08/29 12:42:33;;;;;;;0.77;0.50;;;;;;;15.77;80.80;96739.88;6326809;28;20231;-50
2023/08/29 12:45:36;;;;;;;1.90;0.37;;;;;;;15.81;79.38;96749.72;6309873;28;20244;-51
2023/08/29 12:48:54;;;;;;;0.33;0.33;;;;;;;15.95;80.09;96755.09;6322875;28;20237;-51
2023/08/29 12:51:57;;;;;;;0.50;0.43;;;;;;;15.96;81.52;96751.31;6322948;28;20233;-50
2023/08/29 12:55:00;;;;;;;0.53;0.40;;;;;;;16.18;79.25;96747.91;6326645;28;20236;-51
2023/08/29 12:58:04;;;;;;;0.50;0.37;;;;;;;16.31;77.55;96754.38;6326967;28;20326;-51
2023/08/29 13:01:06;;;;;;;0.60;0.60;;;;;;;16.22;77.43;96749.69;6325923;28;20244;-52
2023/08/29 13:04:09;;;;;;;0.57;0.57;;;;;;;16.25;77.69;96754.47;6326335;28;20677;-52
2023/08/29 13:07:11;;;;;;;0.60;0.40;;;;;;;16.18;79.42;96761.34;6324786;28;20285;-51
2023/08/29 13:10:13;;;;;;;0.47;0.47;;;;;;;16.27;78.92;96748.81;6327004;28;20702;-52
2023/08/29 13:13:16;;;;;;;0.47;0.47;;;;;;;16.42;75.26;96750.38;6322095;28;20229;-53
2023/08/29 13:16:18;;;;;;;1.10;0.50;;;;;;;16.26;75.37;96725.72;6324877;28;20313;-51
2023/08/29 13:19:20;;;;;;;1.00;0.50;;;;;;;16.38;76.17;96747.47;6326738;28;20220;-51
2023/08/29 13:22:22;;;;;;;0.40;0.40;;;;;;;16.33;77.23;96739.53;6325271;28;20240;-52
2023/08/29 13:25:26;;;;;;;1.60;0.47;;;;;;;16.41;75.53;96743.41;6325532;28;20233;-52
2023/08/29 13:28:28;;;;;;;0.50;0.40;;;;;;;16.27;76.85;96758.75;6327665;28;20782;-50
2023/08/29 13:31:30;;;;;;;0.40;0.40;;;;;;;16.09;77.81;96763.13;6326414;28;20239;-52
2023/08/29 13:34:32;;;;;;;0.33;0.33;;;;;;;16.29;75.98;96765.41;6324410;28;20328;-51
2023/08/29 13:37:34;;;;;;;2.07;0.40;;;;;;;16.16;78.01;96763.56;6314612;28;20324;-48
2023/08/29 13:40:36;;;;;;;0.40;0.40;;;;;;;16.11;77.37;96766.34;6312714;28;20310;-52
2023/08/29 13:43:39;;;;;;;0.40;0.40;;;;;;;16.08;78.57;96764.25;6316676;28;20236;-52
2023/08/29 13:46:41;;;;;;;0.40;0.40;;;;;;;16.04;77.98;96769.41;6316942;28;20224;-49
2023/08/29 13:49:47;;;;;;;1.50;0.50;;;;;;;15.99;76.74;96770.31;6317415;28;20706;-51
2023/08/29 13:52:49;;;;;;;0.67;0.33;;;;;;;15.95;78.31;96757.75;6315315;28;20232;-48
2023/08/29 13:55:52;;;;;;;0.50;0.50;;;;;;;15.93;77.81;96743.84;6316579;28;20275;-53
2023/08/29 13:58:56;;;;;;;0.33;0.33;;;;;;;15.96;76.66;96748.63;6315937;28;20237;-49
2023/08/29 14:01:59;;;;;;;0.40;0.40;;;;;;;15.85;79.26;96764.13;6314008;28;20237;-52
2023/08/29 14:05:01;;;;;;;0.40;0.40;;;;;;;15.81;81.56;96757.78;6317486;28;20312;-49
2023/08/29 14:08:04;;;;;;;0.37;0.37;;;;;;;15.80;79.75;96764.22;6303076;28;20271;-50
2023/08/29 14:11:07;;;;;;;0.27;0.27;;;;;;;15.80;80.16;96768.81;6313010;28;20221;-52
2023/08/29 14:14:11;;;;;;;1.17;0.50;;;;;;;15.67;79.50;96738.19;6310831;28;20244;-51
2023/08/29 14:17:14;;;;;;;0.53;0.33;;;;;;;15.77;78.90;96756.00;6306155;28;20221;-49
2023/08/29 14:20:16;;;;;;;0.87;0.40;;;;;;;15.84;77.58;96756.38;6313174;28;20232;-49